createdAt,value
2018-10-12T00:01:36.407Z,100408.00
2018-10-12T00:04:03.928Z,100403.00
2018-10-12T00:06:31.415Z,100403.00
2018-10-12T00:08:58.918Z,100396.00
2018-10-12T00:11:26.415Z,100400.00
2018-10-12T00:13:53.914Z,100393.00
2018-10-12T00:16:21.398Z,100391.00
2018-10-12T00:18:48.902Z,100400.00
2018-10-12T00:21:16.394Z,100388.00
2018-10-12T00:23:43.894Z,100391.00
2018-10-12T00:26:11.378Z,100383.00
2018-10-12T00:28:38.870Z,100389.00
2018-10-12T00:31:06.500Z,100395.00
2018-10-12T00:33:33.997Z,100387.00
2018-10-12T00:36:01.494Z,100396.00
2018-10-12T00:38:29.026Z,100396.00
2018-10-12T00:40:56.530Z,100396.00
2018-10-12T00:43:24.031Z,100397.00
2018-10-12T00:45:51.565Z,100404.00
2018-10-12T00:48:19.092Z,100407.00
2018-10-12T00:50:46.587Z,100409.00
2018-10-12T00:53:14.101Z,100413.00
2018-10-12T00:55:41.615Z,100415.00
2018-10-12T00:58:09.122Z,100413.00
2018-10-12T01:00:36.663Z,100424.00
2018-10-12T01:03:04.191Z,100426.00
2018-10-12T01:05:31.710Z,100428.00
2018-10-12T01:07:59.210Z,100436.00
2018-10-12T01:10:26.743Z,100422.00
2018-10-12T01:12:54.258Z,100431.00
2018-10-12T01:15:21.799Z,100427.00
2018-10-12T01:17:49.320Z,100429.00
2018-10-12T01:20:16.862Z,100425.00
2018-10-12T01:22:44.387Z,100429.00
2018-10-12T01:25:11.932Z,100423.00
2018-10-12T01:27:39.461Z,100431.00
2018-10-12T01:30:07.014Z,100429.00
2018-10-12T01:32:40.415Z,100433.00
2018-10-12T01:35:07.950Z,100431.00
2018-10-12T01:37:35.534Z,100438.00
2018-10-12T01:40:03.095Z,100434.00
2018-10-12T01:42:30.607Z,100439.00
2018-10-12T01:44:58.132Z,100445.00
2018-10-12T01:47:25.646Z,100437.00
2018-10-12T01:49:53.151Z,100439.00
2018-10-12T01:52:20.636Z,100446.00
2018-10-12T01:54:48.151Z,100439.00
2018-10-12T01:57:15.655Z,100442.00
2018-10-12T01:59:43.151Z,100436.00
2018-10-12T02:02:10.654Z,100453.00
2018-10-12T02:04:38.155Z,100447.00
2018-10-12T02:07:05.657Z,100447.00
2018-10-12T02:09:33.192Z,100460.00
2018-10-12T02:12:00.683Z,100458.00
2018-10-12T02:14:28.898Z,100459.00
2018-10-12T02:16:56.390Z,100469.00
2018-10-12T02:19:24.017Z,100460.00
2018-10-12T02:21:51.553Z,100460.00
2018-10-12T02:24:19.046Z,100469.00
2018-10-12T02:26:46.559Z,100470.00
2018-10-12T02:29:14.074Z,100483.00
2018-10-12T02:31:42.014Z,100474.00
2018-10-12T02:34:09.511Z,100476.00
2018-10-12T02:36:37.138Z,100476.00
2018-10-12T02:39:08.283Z,100476.00
2018-10-12T02:41:35.777Z,100484.00
2018-10-12T02:44:03.299Z,100483.00
2018-10-12T02:46:30.824Z,100487.00
2018-10-12T02:48:58.334Z,100494.00
2018-10-12T02:51:25.862Z,100501.00
2018-10-12T02:53:53.407Z,100496.00
2018-10-12T02:56:22.128Z,100498.00
2018-10-12T02:58:50.499Z,100501.00
2018-10-12T03:01:18.680Z,100491.00
2018-10-12T03:03:46.190Z,100505.00
2018-10-12T03:06:13.907Z,100499.00
2018-10-12T03:08:41.553Z,100498.00
2018-10-12T03:11:09.064Z,100513.00
2018-10-12T03:13:36.547Z,100508.00
2018-10-12T03:16:04.062Z,100502.00
2018-10-12T03:18:31.560Z,100500.00
2018-10-12T03:20:59.063Z,100505.00
2018-10-12T03:23:27.423Z,100499.00
2018-10-12T03:25:54.914Z,100504.00
2018-10-12T03:28:25.722Z,100506.00
2018-10-12T03:30:53.236Z,100503.00
2018-10-12T03:33:20.743Z,100515.00
2018-10-12T03:35:48.674Z,100516.00
2018-10-12T03:38:16.266Z,100505.00
2018-10-12T03:40:44.350Z,100519.00
2018-10-12T03:43:12.116Z,100515.00
2018-10-12T03:45:39.883Z,100531.00
2018-10-12T03:48:07.539Z,100528.00
2018-10-12T03:50:35.063Z,100525.00
2018-10-12T03:53:02.647Z,100532.00
2018-10-12T03:55:30.178Z,100527.00
2018-10-12T03:57:57.690Z,100524.00
2018-10-12T04:00:25.354Z,100540.00
2018-10-12T04:02:52.913Z,100539.00
2018-10-12T04:05:20.452Z,100538.00
2018-10-12T04:07:48.091Z,100539.00
2018-10-12T04:10:15.624Z,100542.00
2018-10-12T04:12:43.222Z,100543.00
2018-10-12T04:15:10.714Z,100548.00
2018-10-12T04:17:38.231Z,100550.00
2018-10-12T04:20:05.754Z,100552.00
2018-10-12T04:22:33.283Z,100558.00
2018-10-12T04:25:00.786Z,100570.00
2018-10-12T04:27:28.311Z,100572.00
2018-10-12T04:29:55.838Z,100573.00
2018-10-12T04:32:23.367Z,100569.00
2018-10-12T04:34:50.882Z,100566.00
2018-10-12T04:37:18.407Z,100569.00
2018-10-12T04:41:58.485Z,100573.00
2018-10-12T04:44:26.017Z,100578.00
2018-10-12T04:46:53.563Z,100590.00
2018-10-12T04:49:21.194Z,100587.00
2018-10-12T04:51:53.186Z,100580.00
2018-10-12T04:54:21.033Z,100589.00
2018-10-12T04:56:48.873Z,100592.00
2018-10-12T04:59:16.401Z,100591.00
2018-10-12T05:01:43.930Z,100590.00
2018-10-12T05:04:11.470Z,100606.00
2018-10-12T05:06:39.007Z,100607.00
2018-10-12T05:09:08.715Z,100605.00
2018-10-12T05:11:36.285Z,100614.00
2018-10-12T05:14:03.828Z,100618.00
2018-10-12T05:16:31.506Z,100617.00
2018-10-12T05:18:59.052Z,100623.00
2018-10-12T05:21:26.575Z,100620.00
2018-10-12T05:23:54.090Z,100629.00
2018-10-12T05:26:21.605Z,100629.00
2018-10-12T05:28:49.150Z,100619.00
2018-10-12T05:31:16.768Z,100623.00
2018-10-12T05:33:44.281Z,100632.00
2018-10-12T05:36:11.900Z,100633.00
2018-10-12T05:38:39.351Z,100618.00
2018-10-12T05:41:07.078Z,100636.00
2018-10-12T05:43:37.108Z,100632.00
2018-10-12T05:46:04.578Z,100631.00
2018-10-12T05:48:49.767Z,100637.00
2018-10-12T05:51:18.048Z,100642.00
2018-10-12T05:53:46.039Z,100654.00
2018-10-12T05:56:17.093Z,100658.00
2018-10-12T05:58:45.263Z,100665.00
2018-10-12T06:01:12.832Z,100655.00
2018-10-12T06:03:40.343Z,100660.00
2018-10-12T06:06:08.007Z,100670.00
2018-10-12T06:08:35.537Z,100663.00
2018-10-12T06:11:03.067Z,100660.00
2018-10-12T06:13:30.578Z,100664.00
2018-10-12T06:15:58.165Z,100677.00
2018-10-12T06:18:25.661Z,100685.00
2018-10-12T06:20:53.175Z,100688.00
2018-10-12T06:23:20.694Z,100697.00
2018-10-12T06:25:48.196Z,100693.00
2018-10-12T06:28:15.723Z,100693.00
2018-10-12T06:30:43.231Z,100705.00
2018-10-12T06:33:10.743Z,100690.00
2018-10-12T06:35:38.242Z,100692.00
2018-10-12T06:38:05.885Z,100696.00
2018-10-12T06:40:33.631Z,100693.00
2018-10-12T06:43:01.401Z,100704.00
2018-10-12T06:45:28.901Z,100707.00
2018-10-12T06:47:56.414Z,100708.00
2018-10-12T06:50:23.939Z,100710.00
2018-10-12T06:52:51.462Z,100708.00
2018-10-12T06:55:18.987Z,100712.00
2018-10-12T06:57:46.554Z,100712.00
2018-10-12T07:00:14.055Z,100712.00
2018-10-12T07:02:41.590Z,100714.00
2018-10-12T07:05:09.110Z,100724.00
2018-10-12T07:07:36.647Z,100717.00
2018-10-12T07:10:04.211Z,100735.00
2018-10-12T07:12:31.747Z,100730.00
2018-10-12T07:14:59.239Z,100727.00
2018-10-12T07:17:26.752Z,100727.00
2018-10-12T07:19:54.258Z,100733.00
2018-10-12T07:22:21.775Z,100736.00
2018-10-12T07:24:49.318Z,100739.00
2018-10-12T07:27:16.846Z,100745.00
2018-10-12T07:29:44.344Z,100745.00
2018-10-12T07:32:11.866Z,100746.00
2018-10-12T07:34:39.373Z,100762.00
2018-10-12T07:37:06.987Z,100755.00
2018-10-12T07:39:34.434Z,100762.00
2018-10-12T07:42:01.959Z,100746.00
2018-10-12T07:44:29.484Z,100756.00
2018-10-12T07:46:56.999Z,100761.00
2018-10-12T07:49:24.526Z,100766.00
2018-10-12T07:51:52.057Z,100766.00
2018-10-12T07:54:19.562Z,100776.00
2018-10-12T07:56:47.067Z,100775.00
2018-10-12T07:59:14.657Z,100789.00
2018-10-12T08:01:42.528Z,100785.00
2018-10-12T08:04:10.379Z,100794.00
2018-10-12T08:06:38.351Z,100796.00
2018-10-12T08:09:07.466Z,100787.00
2018-10-12T08:11:35.762Z,100802.00
2018-10-12T08:14:03.848Z,100793.00
2018-10-12T08:16:31.785Z,100794.00
2018-10-12T08:18:59.576Z,100796.00
2018-10-12T08:21:27.565Z,100801.00
2018-10-12T08:23:55.515Z,100797.00
2018-10-12T08:26:23.355Z,100809.00
2018-10-12T08:28:51.227Z,100809.00
2018-10-12T08:31:19.053Z,100808.00
2018-10-12T08:33:46.835Z,100817.00
2018-10-12T08:36:14.751Z,100819.00
2018-10-12T08:38:42.623Z,100822.00
2018-10-12T08:41:10.458Z,100827.00
2018-10-12T08:43:38.336Z,100832.00
2018-10-12T08:46:06.263Z,100829.00
2018-10-12T08:48:34.158Z,100831.00
2018-10-12T08:51:02.073Z,100825.00
2018-10-12T08:53:29.974Z,100832.00
2018-10-12T08:55:57.826Z,100836.00
2018-10-12T08:58:25.687Z,100836.00
2018-10-12T09:00:53.539Z,100833.00
2018-10-12T09:03:21.448Z,100851.00
2018-10-12T09:05:49.271Z,100857.00
2018-10-12T09:08:17.175Z,100852.00
2018-10-12T09:10:44.958Z,100855.00
2018-10-12T09:13:12.760Z,100853.00
2018-10-12T09:15:40.571Z,100845.00
2018-10-12T09:18:08.500Z,100845.00
2018-10-12T09:20:36.386Z,100855.00
2018-10-12T09:23:04.301Z,100848.00
2018-10-12T09:25:32.221Z,100860.00
2018-10-12T09:28:00.027Z,100862.00
2018-10-12T09:30:27.963Z,100872.00
2018-10-12T09:32:55.808Z,100861.00
2018-10-12T09:35:23.675Z,100870.00
2018-10-12T09:37:51.595Z,100873.00
2018-10-12T09:40:19.407Z,100885.00
2018-10-12T09:42:47.325Z,100883.00
2018-10-12T09:45:15.130Z,100888.00
2018-10-12T09:47:42.943Z,100884.00
2018-10-12T09:50:10.790Z,100887.00
2018-10-12T09:52:38.552Z,100881.00
2018-10-12T09:55:06.402Z,100883.00
2018-10-12T09:57:34.873Z,100882.00
2018-10-12T10:00:03.816Z,100872.00
2018-10-12T10:02:37.438Z,100880.00
2018-10-12T10:05:07.188Z,100886.00
2018-10-12T10:07:35.213Z,100883.00
2018-10-12T10:10:03.098Z,100882.00
2018-10-12T10:12:30.836Z,100887.00
2018-10-12T10:14:58.651Z,100882.00
2018-10-12T10:17:26.448Z,100877.00
2018-10-12T10:19:54.298Z,100878.00
2018-10-12T10:22:22.085Z,100883.00
2018-10-12T10:24:49.989Z,100882.00
2018-10-12T10:27:17.784Z,100887.00
2018-10-12T10:29:45.563Z,100886.00
2018-10-12T10:32:13.449Z,100885.00
2018-10-12T10:34:41.247Z,100885.00
2018-10-12T10:37:09.082Z,100885.00
2018-10-12T10:40:07.487Z,100893.00
2018-10-12T10:42:35.411Z,100893.00
2018-10-12T10:45:19.895Z,100894.00
2018-10-12T10:47:47.975Z,100887.00
2018-10-12T10:50:15.823Z,100879.00
2018-10-12T10:52:43.630Z,100880.00
2018-10-12T10:55:11.496Z,100873.00
2018-10-12T10:57:39.398Z,100881.00
2018-10-12T11:00:07.556Z,100881.00
2018-10-12T11:02:35.407Z,100881.00
2018-10-12T11:05:03.209Z,100884.00
2018-10-12T11:07:31.162Z,100875.00
2018-10-12T11:09:59.026Z,100874.00
2018-10-12T11:12:26.777Z,100873.00
2018-10-12T11:14:54.552Z,100871.00
2018-10-12T11:17:22.412Z,100875.00
2018-10-12T11:19:50.544Z,100863.00
2018-10-12T11:22:18.421Z,100875.00
2018-10-12T11:24:53.578Z,100867.00
2018-10-12T11:27:21.455Z,100878.00
2018-10-12T11:29:49.320Z,100863.00
2018-10-12T11:32:17.089Z,100863.00
2018-10-12T11:34:44.977Z,100858.00
2018-10-12T11:37:22.563Z,100858.00
2018-10-12T11:39:50.352Z,100855.00
2018-10-12T11:42:18.390Z,100862.00
2018-10-12T11:44:46.298Z,100865.00
2018-10-12T11:47:14.140Z,100862.00
2018-10-12T11:49:42.043Z,100862.00
2018-10-12T11:52:16.185Z,100862.00
2018-10-12T11:54:43.935Z,100856.00
2018-10-12T11:57:11.727Z,100859.00
2018-10-12T11:59:39.615Z,100866.00
2018-10-12T12:02:07.561Z,100868.00
2018-10-12T12:04:35.314Z,100864.00
2018-10-12T12:07:13.831Z,100870.00
2018-10-12T12:09:41.668Z,100865.00
2018-10-12T12:12:09.564Z,100855.00
2018-10-12T12:15:02.840Z,100863.00
2018-10-12T12:17:30.650Z,100858.00
2018-10-12T12:19:58.496Z,100866.00
2018-10-12T12:22:26.404Z,100861.00
2018-10-12T12:24:54.232Z,100854.00
2018-10-12T12:27:22.188Z,100863.00
2018-10-12T12:29:50.010Z,100864.00
2018-10-12T12:32:17.953Z,100867.00
2018-10-12T12:34:45.859Z,100858.00
2018-10-12T12:37:13.560Z,100860.00
2018-10-12T12:39:41.348Z,100858.00
2018-10-12T12:42:09.221Z,100853.00
2018-10-12T12:44:46.940Z,100862.00
2018-10-12T12:47:14.824Z,100862.00
2018-10-12T12:49:42.678Z,100856.00
2018-10-12T12:52:10.510Z,100854.00
2018-10-12T12:54:38.413Z,100848.00
2018-10-12T12:57:06.248Z,100851.00
2018-10-12T12:59:34.188Z,100856.00
2018-10-12T13:02:02.044Z,100856.00
2018-10-12T13:04:29.829Z,100860.00
2018-10-12T13:06:57.654Z,100859.00
2018-10-12T13:09:25.529Z,100865.00
2018-10-12T13:11:53.356Z,100855.00
2018-10-12T13:14:21.259Z,100852.00
2018-10-12T13:16:49.044Z,100867.00
2018-10-12T13:19:16.806Z,100863.00
2018-10-12T13:21:44.636Z,100867.00
2018-10-12T13:24:12.550Z,100867.00
2018-10-12T13:26:40.360Z,100868.00
2018-10-12T13:29:08.152Z,100870.00
2018-10-12T13:31:36.057Z,100871.00
2018-10-12T13:34:03.919Z,100873.00
2018-10-12T13:36:31.736Z,100869.00
2018-10-12T13:38:59.608Z,100872.00
2018-10-12T13:41:27.411Z,100867.00
2018-10-12T13:43:55.264Z,100870.00
2018-10-12T13:46:23.059Z,100875.00
2018-10-12T13:48:50.896Z,100877.00
2018-10-12T13:51:18.772Z,100871.00
2018-10-12T13:53:46.632Z,100879.00
2018-10-12T13:56:14.479Z,100881.00
2018-10-12T13:58:42.294Z,100877.00
2018-10-12T14:01:10.091Z,100900.00
2018-10-12T14:03:37.856Z,100900.00
2018-10-12T14:06:05.691Z,100897.00
2018-10-12T14:08:33.976Z,100902.00
2018-10-12T14:11:01.823Z,100904.00
2018-10-12T14:13:29.563Z,100908.00
2018-10-12T14:15:57.359Z,100901.00
2018-10-12T14:18:25.286Z,100897.00
2018-10-12T14:20:53.023Z,100896.00
2018-10-12T14:23:20.819Z,100894.00
2018-10-12T14:25:48.687Z,100890.00
2018-10-12T14:28:16.407Z,100898.00
2018-10-12T14:30:44.204Z,100899.00
2018-10-12T14:33:12.041Z,100895.00
2018-10-12T14:35:40.048Z,100896.00
2018-10-12T14:38:07.843Z,100897.00
2018-10-12T14:40:35.711Z,100896.00
2018-10-12T14:43:03.587Z,100905.00
2018-10-12T14:45:31.554Z,100900.00
2018-10-12T14:47:59.444Z,100893.00
2018-10-12T14:50:27.341Z,100900.00
2018-10-12T14:52:55.276Z,100900.00
2018-10-12T14:55:23.031Z,100907.00
2018-10-12T14:57:50.927Z,100905.00
2018-10-12T15:00:18.820Z,100907.00
2018-10-12T15:02:46.672Z,100906.00
2018-10-12T15:05:14.544Z,100895.00
2018-10-12T15:07:42.375Z,100903.00
2018-10-12T15:10:10.243Z,100899.00
2018-10-12T15:12:38.070Z,100900.00
2018-10-12T15:15:19.765Z,100899.00
2018-10-12T15:17:48.667Z,100897.00
2018-10-12T15:20:16.597Z,100897.00
2018-10-12T15:22:44.447Z,100889.00
2018-10-12T15:25:12.355Z,100897.00
2018-10-12T15:27:40.791Z,100900.00
2018-10-12T15:30:09.348Z,100906.00
2018-10-12T15:32:37.226Z,100903.00
2018-10-12T15:35:05.043Z,100902.00
2018-10-12T15:37:32.951Z,100905.00
2018-10-12T15:40:01.120Z,100903.00
2018-10-12T15:42:29.163Z,100897.00
2018-10-12T15:44:57.036Z,100894.00
2018-10-12T15:47:24.927Z,100898.00
2018-10-12T15:49:53.105Z,100896.00
2018-10-12T15:52:20.995Z,100899.00
2018-10-12T15:54:49.428Z,100901.00
2018-10-12T15:57:17.556Z,100903.00
2018-10-12T15:59:46.563Z,100911.00
2018-10-12T16:02:14.763Z,100902.00
2018-10-12T16:04:42.827Z,100900.00
2018-10-12T16:07:10.936Z,100896.00
2018-10-12T16:09:38.836Z,100904.00
2018-10-12T16:12:06.739Z,100900.00
2018-10-12T16:14:34.631Z,100910.00
2018-10-12T16:17:02.487Z,100908.00
2018-10-12T16:19:30.364Z,100912.00
2018-10-12T16:21:58.230Z,100915.00
2018-10-12T16:24:26.083Z,100914.00
2018-10-12T16:26:53.851Z,100919.00
2018-10-12T16:29:21.764Z,100919.00
2018-10-12T16:31:49.644Z,100929.00
2018-10-12T16:34:17.931Z,100935.00
2018-10-12T16:36:45.862Z,100933.00
2018-10-12T16:39:13.756Z,100927.00
2018-10-12T16:41:41.666Z,100928.00
2018-10-12T16:44:09.672Z,100927.00
2018-10-12T16:46:37.572Z,100926.00
2018-10-12T16:49:05.787Z,100934.00
2018-10-12T16:51:33.644Z,100940.00
2018-10-12T16:54:01.572Z,100950.00
2018-10-12T16:56:29.413Z,100955.00
2018-10-12T16:58:57.476Z,100948.00
2018-10-12T17:01:25.416Z,100959.00
2018-10-12T17:03:53.275Z,100954.00
2018-10-12T17:06:21.099Z,100963.00
2018-10-12T17:08:49.052Z,100960.00
2018-10-12T17:11:17.092Z,100949.00
2018-10-12T17:13:44.620Z,100956.00
2018-10-12T17:16:12.151Z,100959.00
2018-10-12T17:18:39.666Z,100953.00
2018-10-12T17:21:07.187Z,100961.00
2018-10-12T17:23:34.650Z,100966.00
2018-10-12T17:26:02.173Z,100972.00
2018-10-12T17:28:29.681Z,100968.00
2018-10-12T17:30:57.192Z,100985.00
2018-10-12T17:33:24.713Z,100989.00
2018-10-12T17:35:52.227Z,100985.00
2018-10-12T17:38:19.750Z,100992.00
2018-10-12T17:40:47.272Z,100999.00
2018-10-12T17:43:14.793Z,101000.00
2018-10-12T17:45:42.299Z,101001.00
2018-10-12T17:48:09.801Z,101003.00
2018-10-12T17:50:37.379Z,100998.00
2018-10-12T17:53:05.366Z,100999.00
2018-10-12T17:55:32.856Z,101004.00
2018-10-12T17:58:00.359Z,101006.00
2018-10-12T18:00:27.966Z,101000.00
2018-10-12T18:02:55.413Z,101010.00
2018-10-12T18:05:22.906Z,101014.00
2018-10-12T18:07:50.420Z,101013.00
2018-10-12T18:10:17.914Z,101010.00
2018-10-12T18:12:45.410Z,101011.00
2018-10-12T18:15:12.922Z,101022.00
2018-10-12T18:17:40.646Z,101015.00
2018-10-12T18:20:09.026Z,101018.00
2018-10-12T18:22:36.606Z,101019.00
2018-10-12T18:25:04.770Z,101015.00
2018-10-12T18:27:32.281Z,101019.00
2018-10-12T18:29:59.794Z,101021.00
2018-10-12T18:32:27.299Z,101025.00
2018-10-12T18:34:54.802Z,101021.00
2018-10-12T18:37:22.386Z,101029.00
2018-10-12T18:39:49.834Z,101027.00
2018-10-12T18:42:17.350Z,101024.00
2018-10-12T18:44:44.878Z,101033.00
2018-10-12T18:47:12.427Z,101025.00
2018-10-12T18:49:39.956Z,101029.00
2018-10-12T18:55:08.419Z,101028.00
2018-10-12T18:57:35.936Z,101022.00
2018-10-12T19:00:05.571Z,101022.00
2018-10-12T19:02:33.606Z,101022.00
2018-10-12T19:05:01.262Z,101015.00
2018-10-12T19:07:28.683Z,101024.00
2018-10-12T19:09:56.197Z,101019.00
2018-10-12T19:12:23.830Z,101035.00
2018-10-12T19:14:51.333Z,101038.00
2018-10-12T19:17:18.843Z,101038.00
2018-10-12T19:19:46.362Z,101037.00
2018-10-12T19:22:13.907Z,101025.00
2018-10-12T19:24:41.450Z,101038.00
2018-10-12T19:27:08.974Z,101030.00
2018-10-12T19:29:36.504Z,101033.00
2018-10-12T19:32:04.010Z,101039.00
2018-10-12T19:34:31.549Z,101036.00
2018-10-12T19:36:59.071Z,101039.00
2018-10-12T19:39:26.594Z,101042.00
2018-10-12T19:41:54.118Z,101043.00
2018-10-12T19:44:21.669Z,101040.00
2018-10-12T19:46:49.195Z,101052.00
2018-10-12T19:49:16.721Z,101034.00
2018-10-12T19:51:44.230Z,101036.00
2018-10-12T19:54:11.745Z,101037.00
2018-10-12T19:56:39.274Z,101033.00
2018-10-12T19:59:10.592Z,101043.00
2018-10-12T20:01:38.129Z,101053.00
2018-10-12T20:04:05.643Z,101049.00
2018-10-12T20:06:33.162Z,101045.00
2018-10-12T20:09:08.913Z,101041.00
2018-10-12T20:11:36.448Z,101056.00
2018-10-12T20:14:34.875Z,101053.00
2018-10-12T20:17:02.390Z,101056.00
2018-10-12T20:19:29.909Z,101049.00
2018-10-12T20:22:00.988Z,101049.00
2018-10-12T20:24:28.508Z,101048.00
2018-10-12T20:27:19.923Z,101041.00
2018-10-12T20:29:58.546Z,101052.00
2018-10-12T20:32:30.734Z,101050.00
2018-10-12T20:34:58.405Z,101044.00
2018-10-12T20:37:25.950Z,101038.00
2018-10-12T20:39:53.481Z,101035.00
2018-10-12T20:42:21.084Z,101036.00
2018-10-12T20:44:48.621Z,101043.00
2018-10-12T20:47:16.111Z,101053.00
2018-10-12T20:49:43.605Z,101054.00
2018-10-12T20:52:11.112Z,101047.00
2018-10-12T20:54:38.624Z,101051.00
2018-10-12T20:57:06.505Z,101047.00
2018-10-12T20:59:33.970Z,101050.00
2018-10-12T21:02:01.459Z,101042.00
2018-10-12T21:04:28.963Z,101033.00
2018-10-12T21:06:56.462Z,101033.00
2018-10-12T21:09:23.963Z,101041.00
2018-10-12T21:11:53.546Z,101042.00
2018-10-12T21:14:21.035Z,101032.00
2018-10-12T21:16:48.544Z,101033.00
2018-10-12T21:19:16.035Z,101033.00
2018-10-12T21:21:47.999Z,101028.00
2018-10-12T21:24:15.498Z,101032.00
2018-10-12T21:26:42.997Z,101029.00
2018-10-12T21:29:10.501Z,101024.00
2018-10-12T21:31:37.999Z,101021.00
2018-10-12T21:34:05.503Z,101019.00
2018-10-12T21:36:32.991Z,101016.00
2018-10-12T21:39:00.498Z,101013.00
2018-10-12T21:41:27.997Z,101015.00
2018-10-12T21:43:55.498Z,101016.00
2018-10-12T21:46:22.991Z,101013.00
2018-10-12T21:48:50.499Z,101020.00
2018-10-12T21:51:17.989Z,101015.00
2018-10-12T21:53:45.498Z,101016.00
2018-10-12T21:56:12.995Z,101015.00
2018-10-12T21:58:40.504Z,101015.00
2018-10-12T22:01:08.050Z,101012.00
2018-10-12T22:03:36.407Z,101015.00
2018-10-12T22:06:04.262Z,101009.00
2018-10-12T22:08:37.467Z,101015.00
2018-10-12T22:11:05.843Z,101010.00
2018-10-12T22:13:33.830Z,101002.00
2018-10-12T22:16:01.342Z,101015.00
2018-10-12T22:18:28.925Z,101005.00
2018-10-12T22:20:56.442Z,101014.00
2018-10-12T22:23:23.958Z,101019.00
2018-10-12T22:25:51.539Z,101014.00
2018-10-12T22:28:18.985Z,101011.00
2018-10-12T22:30:46.725Z,101014.00
2018-10-12T22:33:14.289Z,101016.00
2018-10-12T22:35:41.736Z,101015.00
2018-10-12T22:38:09.240Z,101018.00
2018-10-12T22:40:42.602Z,101019.00
2018-10-12T22:43:10.103Z,101016.00
2018-10-12T22:45:37.615Z,101013.00
2018-10-12T22:48:05.339Z,101015.00
2018-10-12T22:50:32.847Z,101011.00
2018-10-12T22:53:00.342Z,101025.00
2018-10-12T22:55:27.859Z,101022.00
2018-10-12T22:58:01.462Z,101017.00
2018-10-12T23:00:31.504Z,101018.00
2018-10-12T23:02:59.113Z,101010.00
2018-10-12T23:05:26.618Z,101021.00
2018-10-12T23:07:54.254Z,101017.00
2018-10-12T23:10:22.330Z,101018.00
2018-10-12T23:12:49.898Z,101016.00
2018-10-12T23:15:17.407Z,101017.00
2018-10-12T23:17:45.015Z,101017.00
2018-10-12T23:20:12.520Z,101019.00
2018-10-12T23:22:40.051Z,101023.00
2018-10-12T23:25:07.546Z,101017.00
2018-10-12T23:27:35.036Z,101010.00
2018-10-12T23:30:02.547Z,101020.00
2018-10-12T23:32:30.162Z,101015.00
2018-10-12T23:34:57.662Z,101021.00
2018-10-12T23:37:25.167Z,101023.00
2018-10-12T23:39:52.661Z,101014.00
2018-10-12T23:42:20.145Z,101016.00
2018-10-12T23:44:47.638Z,101023.00
2018-10-12T23:47:15.126Z,101026.00
2018-10-12T23:49:42.636Z,101027.00
2018-10-12T23:52:10.135Z,101028.00
2018-10-12T23:54:37.648Z,101038.00
2018-10-12T23:57:05.471Z,101037.00
2018-10-12T23:59:32.971Z,101034.00
